Time;durP1;ratioP1;P1;durP2;ratioP2;P2;SDS_P1;SDS_P2;PMS_P1;PMS_P2;Temp;Humidity;BMP_temperature;BMP_pressure;BME280_temperature;BME280_humidity;BME280_pressure;Samples;Min_cycle;Max_cycle;Signal;HPM_P1;HPM_P2
2023/09/16 00:02:08;;;;;;;2.33;2.13;;;;;;;20.03;100.00;100988.50;5040286;28;20592;-86
2023/09/16 00:04:34;;;;;;;2.15;1.75;;;;;;;19.61;100.00;100957.72;5045865;28;20033;-87
2023/09/16 00:06:59;;;;;;;1.42;0.95;;;;;;;19.66;100.00;100960.25;5041749;28;20044;-85
2023/09/16 00:09:25;;;;;;;1.20;1.10;;;;;;;19.20;100.00;100903.03;5042967;28;20053;-86
2023/09/16 00:11:51;;;;;;;2.05;1.85;;;;;;;19.72;100.00;100975.22;5038505;28;20041;-86
2023/09/16 00:14:21;;;;;;;1.55;1.42;;;;;;;19.92;100.00;101007.47;5035417;28;20041;-86
2023/09/16 00:16:46;;;;;;;2.40;1.95;;;;;;;19.26;100.00;100912.59;5022707;28;20032;-86
2023/09/16 00:19:12;;;;;;;1.20;0.95;;;;;;;19.62;100.00;100995.88;5047453;28;20037;-85
2023/09/16 00:21:40;;;;;;;1.15;1.02;;;;;;;19.74;100.00;101026.66;5047959;28;20057;-85
2023/09/16 00:24:05;;;;;;;0.98;0.70;;;;;;;19.60;100.00;101017.22;5046364;28;20037;-87
2023/09/16 00:26:34;;;;;;;1.13;0.93;;;;;;;19.68;100.00;101024.13;5020777;28;20048;-85
2023/09/16 00:29:00;;;;;;;0.75;0.63;;;;;;;19.09;100.00;100905.09;5039480;28;20037;-87
2023/09/16 00:31:25;;;;;;;0.95;0.90;;;;;;;19.28;100.00;100940.91;5048016;28;20616;-85
2023/09/16 00:33:51;;;;;;;1.23;1.13;;;;;;;19.05;100.00;100909.63;5044946;28;20048;-85
2023/09/16 00:36:17;;;;;;;1.67;1.50;;;;;;;18.94;100.00;100909.91;5039205;28;20465;-85
2023/09/16 00:38:42;;;;;;;1.08;0.95;;;;;;;19.38;100.00;100978.78;5048199;28;20044;-86
2023/09/16 00:41:08;;;;;;;2.15;1.95;;;;;;;18.81;100.00;100883.69;5044669;28;20036;-83
2023/09/16 00:43:34;;;;;;;1.33;1.23;;;;;;;19.68;100.00;101035.66;5042023;28;20079;-85
2023/09/16 00:45:59;;;;;;;1.50;1.25;;;;;;;19.63;100.00;101040.22;5054646;28;20045;-83
2023/09/16 00:48:26;;;;;;;3.90;2.05;;;;;;;19.66;100.00;101026.81;5024057;28;20045;-84
2023/09/16 00:50:52;;;;;;;1.73;1.48;;;;;;;19.60;100.00;101019.88;5045962;28;20098;-85
2023/09/16 00:53:18;;;;;;;2.75;2.28;;;;;;;19.60;100.00;101022.53;5030809;28;20044;-86
2023/09/16 00:55:47;;;;;;;1.25;0.85;;;;;;;19.56;100.00;101017.34;5047887;28;20054;-85
2023/09/16 00:58:13;;;;;;;1.67;1.58;;;;;;;19.45;100.00;100993.66;5051781;28;20037;-85
2023/09/16 01:00:39;;;;;;;1.05;0.88;;;;;;;19.32;100.00;100968.34;5043011;28;20456;-85
2023/09/16 01:03:06;;;;;;;10.32;2.38;;;;;;;19.29;100.00;100984.34;5061847;28;20413;-85
2023/09/16 01:05:33;;;;;;;1.17;1.13;;;;;;;18.74;100.00;100904.22;5060336;28;20052;-86
2023/09/16 01:07:59;;;;;;;1.08;1.00;;;;;;;19.49;100.00;101021.09;5060205;28;20623;-84
2023/09/16 01:10:24;;;;;;;1.27;1.05;;;;;;;19.50;100.00;101013.09;5063525;28;20139;-85
2023/09/16 01:12:53;;;;;;;0.40;0.40;;;;;;;19.19;100.00;100957.13;5056631;28;20063;-83
2023/09/16 01:15:20;;;;;;;3.80;1.67;;;;;;;18.80;100.00;100895.22;5059172;28;20122;-84
2023/09/16 01:18:07;;;;;;;4.88;1.55;;;;;;;19.46;100.00;101014.06;5066076;28;20044;-84
2023/09/16 01:20:34;;;;;;;0.90;0.77;;;;;;;18.91;100.00;100909.97;5063037;28;20056;-86
2023/09/16 01:23:00;;;;;;;0.30;0.30;;;;;;;19.27;100.00;100981.75;5061816;28;20032;-84
2023/09/16 01:25:29;;;;;;;2.05;1.65;;;;;;;19.46;100.00;101011.41;5055280;28;20392;-85
2023/09/16 01:27:55;;;;;;;3.55;1.25;;;;;;;19.37;100.00;101001.00;5062322;28;20111;-83
2023/09/16 01:30:23;;;;;;;1.23;0.63;;;;;;;19.48;100.00;101014.00;5062567;28;20075;-84
2023/09/16 01:33:25;;;;;;;1.40;1.02;;;;;;;19.42;100.00;101017.72;5066285;28;20049;-85
2023/09/16 01:35:59;;;;;;;0.93;0.73;;;;;;;19.08;100.00;100956.53;5041641;28;20099;-86
2023/09/16 01:38:26;;;;;;;1.05;0.98;;;;;;;18.94;100.00;100947.16;5057412;28;20036;-84
2023/09/16 01:40:55;;;;;;;0.50;0.50;;;;;;;19.25;100.00;100988.03;5055725;28;20129;-86
2023/09/16 01:43:20;;;;;;;1.98;1.77;;;;;;;19.33;100.00;101007.31;5041392;28;20028;-86
2023/09/16 01:45:46;;;;;;;0.95;0.90;;;;;;;18.97;100.00;100954.19;5043032;28;20408;-83
2023/09/16 01:48:11;;;;;;;0.80;0.80;;;;;;;19.35;100.00;101016.13;5065729;28;20049;-86
2023/09/16 01:50:37;;;;;;;3.08;1.02;;;;;;;19.30;100.00;101012.72;5064666;28;20040;-84
2023/09/16 01:53:06;;;;;;;1.33;0.77;;;;;;;19.02;100.00;100962.91;5065954;28;20123;-83
2023/09/16 01:55:33;;;;;;;1.17;1.10;;;;;;;18.09;100.00;100818.13;5041037;28;20043;-84
2023/09/16 01:57:59;;;;;;;2.33;2.05;;;;;;;18.53;100.00;100893.22;5048009;28;20131;-84
2023/09/16 02:00:25;;;;;;;0.98;0.90;;;;;;;19.16;100.00;101005.09;5073896;28;20033;-85
2023/09/16 02:02:51;;;;;;;0.90;0.50;;;;;;;18.76;100.00;100926.31;5031617;28;20055;-84
2023/09/16 02:05:17;;;;;;;1.58;1.45;;;;;;;18.91;100.00;100979.13;5061094;28;20128;-85
2023/09/16 02:07:43;;;;;;;2.08;1.92;;;;;;;18.57;100.00;100907.31;5066010;28;20119;-84
2023/09/16 02:10:09;;;;;;;1.42;1.27;;;;;;;18.86;100.00;100954.44;5065422;28;20052;-83
2023/09/16 02:12:35;;;;;;;2.00;1.85;;;;;;;18.86;100.00;100974.84;5066997;28;20570;-86
2023/09/16 02:15:03;;;;;;;2.58;2.38;;;;;;;19.13;100.00;101029.16;5060903;28;20086;-86
2023/09/16 02:17:29;;;;;;;0.75;0.75;;;;;;;19.24;100.00;101020.88;5062426;28;20415;-87
2023/09/16 02:19:54;;;;;;;1.50;1.20;;;;;;;18.86;100.00;100978.38;5062911;28;20032;-83
2023/09/16 02:22:19;;;;;;;0.50;0.40;;;;;;;18.88;100.00;100989.84;5043256;28;20479;-86
2023/09/16 02:24:45;;;;;;;0.43;0.43;;;;;;;18.76;100.00;100975.06;5068254;28;20122;-86
2023/09/16 02:27:12;;;;;;;1.48;0.88;;;;;;;18.95;100.00;101004.75;5044296;28;20040;-87
2023/09/16 02:29:37;;;;;;;3.00;1.77;;;;;;;17.98;100.00;100843.19;5064975;28;20045;-84
2023/09/16 02:32:03;;;;;;;0.40;0.40;;;;;;;19.10;100.00;101031.84;5057497;28;20058;-85
2023/09/16 02:34:31;;;;;;;1.25;0.95;;;;;;;18.46;100.00;100928.81;5059912;28;20048;-87
2023/09/16 02:36:59;;;;;;;2.35;1.80;;;;;;;19.11;100.00;101031.84;5058123;28;20143;-85
2023/09/16 02:39:24;;;;;;;1.73;1.63;;;;;;;18.09;100.00;100852.66;5047612;28;20488;-86
2023/09/16 02:41:49;;;;;;;0.35;0.35;;;;;;;18.69;100.00;100944.22;5065399;28;20124;-85
2023/09/16 02:44:15;;;;;;;1.17;1.08;;;;;;;18.87;100.00;100998.75;5063741;28;20463;-85
2023/09/16 02:46:40;;;;;;;1.48;1.38;;;;;;;18.36;100.00;100911.38;5060167;28;20412;-86
2023/09/16 02:49:06;;;;;;;1.50;1.33;;;;;;;18.66;100.00;100949.63;5065636;28;20060;-86
2023/09/16 02:51:34;;;;;;;1.60;1.02;;;;;;;18.79;100.00;100987.41;5041479;28;20054;-86
2023/09/16 02:54:01;;;;;;;2.17;1.25;;;;;;;18.37;100.00;100914.88;5065358;28;20037;-86
2023/09/16 02:56:27;;;;;;;1.10;1.00;;;;;;;18.69;100.00;100954.84;5065331;28;21238;-85
2023/09/16 02:58:53;;;;;;;1.27;0.80;;;;;;;18.21;100.00;100877.19;5065716;28;20059;-83
2023/09/16 03:01:19;;;;;;;1.42;1.23;;;;;;;18.60;100.00;100965.69;5058204;28;20032;-86
2023/09/16 03:03:44;;;;;;;1.02;1.00;;;;;;;18.97;100.00;101015.34;5038113;28;20761;-85
2023/09/16 03:06:10;;;;;;;1.40;1.13;;;;;;;18.88;100.00;101018.25;5045249;28;20498;-84
2023/09/16 03:08:35;;;;;;;1.65;1.25;;;;;;;18.98;100.00;101044.53;5047157;28;20066;-86
2023/09/16 03:11:05;;;;;;;0.73;0.70;;;;;;;18.67;100.00;100996.53;5064980;28;20032;-86
2023/09/16 03:13:31;;;;;;;0.60;0.60;;;;;;;18.76;100.00;101006.09;5063691;28;20115;-86
2023/09/16 03:16:13;;;;;;;6.03;3.03;;;;;;;18.84;100.00;101043.16;5036778;28;20718;-86
2023/09/16 03:18:39;;;;;;;1.58;1.15;;;;;;;18.90;100.00;101053.66;5036026;28;20049;-87
2023/09/16 03:21:04;;;;;;;1.20;0.80;;;;;;;18.43;100.00;100952.81;5040808;28;20048;-87
2023/09/16 03:23:30;;;;;;;0.52;0.52;;;;;;;18.91;100.00;101058.03;5047663;28;20041;-85
2023/09/16 03:25:55;;;;;;;0.57;0.57;;;;;;;18.28;100.00;100955.81;5064686;28;20403;-86
2023/09/16 03:28:21;;;;;;;1.02;0.93;;;;;;;18.70;100.00;101046.97;5060334;28;20082;-86
2023/09/16 03:30:47;;;;;;;0.93;0.88;;;;;;;18.32;100.00;100998.22;5068352;28;20595;-85
2023/09/16 03:33:12;;;;;;;2.53;1.92;;;;;;;18.48;100.00;101024.47;5060882;28;20182;-87
2023/09/16 03:35:38;;;;;;;1.23;1.13;;;;;;;18.06;100.00;100963.41;5063458;28;20060;-84
2023/09/16 03:38:04;;;;;;;1.38;1.10;;;;;;;18.62;100.00;101054.25;5070897;28;20036;-86
2023/09/16 03:40:30;;;;;;;0.75;0.75;;;;;;;18.33;100.00;101015.03;5070507;28;20079;-85
2023/09/16 03:42:56;;;;;;;1.40;1.30;;;;;;;18.65;100.00;101061.28;5063610;28;20076;-86
2023/09/16 03:45:21;;;;;;;1.00;0.75;;;;;;;18.64;100.00;101033.84;5065931;28;20036;-86
2023/09/16 03:47:49;;;;;;;3.72;1.85;;;;;;;18.72;100.00;101054.91;5064438;28;20094;-86
2023/09/16 03:50:15;;;;;;;0.35;0.35;;;;;;;18.39;100.00;100987.47;5068876;28;20068;-87
2023/09/16 03:52:40;;;;;;;1.00;0.88;;;;;;;18.53;100.00;100991.53;5051749;28;20044;-87
2023/09/16 03:55:06;;;;;;;0.93;0.85;;;;;;;18.86;100.00;101062.59;5068660;28;20057;-86
2023/09/16 03:57:32;;;;;;;1.85;1.10;;;;;;;18.22;100.00;100958.66;5067932;28;20110;-85
2023/09/16 03:59:57;;;;;;;1.20;1.10;;;;;;;18.67;100.00;101052.38;5068154;28;20106;-86
2023/09/16 04:02:23;;;;;;;0.82;0.80;;;;;;;18.67;100.00;101052.38;5062744;28;20110;-85
2023/09/16 04:04:48;;;;;;;1.20;1.10;;;;;;;18.83;100.00;101062.69;5069988;28;20037;-86
2023/09/16 04:07:14;;;;;;;0.60;0.60;;;;;;;18.65;100.00;101037.38;5051194;28;20052;-85
2023/09/16 04:09:39;;;;;;;0.73;0.73;;;;;;;18.44;100.00;100996.22;5073420;28;20068;-87
2023/09/16 04:12:05;;;;;;;1.48;1.38;;;;;;;19.07;100.00;101080.69;5066788;28;20396;-86
2023/09/16 04:14:30;;;;;;;1.30;1.15;;;;;;;18.87;100.00;101094.50;5059865;28;20073;-87
2023/09/16 04:16:56;;;;;;;2.03;1.02;;;;;;;17.93;100.00;100933.59;5063503;28;20644;-86
2023/09/16 04:19:21;;;;;;;0.65;0.65;;;;;;;18.75;100.00;101053.06;5065687;28;20031;-86
2023/09/16 04:21:47;;;;;;;0.88;0.85;;;;;;;18.40;100.00;100992.72;5059178;28;20503;-88
2023/09/16 04:24:13;;;;;;;0.68;0.65;;;;;;;18.80;100.00;101073.38;5065965;28;20072;-86
2023/09/16 04:26:38;;;;;;;0.80;0.80;;;;;;;18.98;100.00;101099.53;5062637;28;20048;-86
2023/09/16 04:29:04;;;;;;;1.80;1.50;;;;;;;17.79;100.00;100896.69;5068148;28;20028;-85
2023/09/16 04:31:30;;;;;;;0.52;0.52;;;;;;;18.56;100.00;101060.56;5063325;28;20437;-85
2023/09/16 04:33:55;;;;;;;2.70;1.27;;;;;;;18.32;100.00;101019.50;5046402;28;20048;-86
2023/09/16 04:36:22;;;;;;;2.13;1.23;;;;;;;17.88;100.00;100914.22;5058306;28;20388;-86
2023/09/16 04:38:48;;;;;;;1.02;0.77;;;;;;;18.75;100.00;101065.47;5066203;28;20036;-87
2023/09/16 04:41:14;;;;;;;0.70;0.70;;;;;;;18.97;100.00;101103.13;5063011;28;20140;-87
2023/09/16 04:43:41;;;;;;;2.00;1.45;;;;;;;18.43;100.00;100998.00;5055456;28;20090;-85
2023/09/16 04:46:06;;;;;;;1.55;0.68;;;;;;;18.33;100.00;100991.13;5069851;28;20037;-86
2023/09/16 04:48:32;;;;;;;0.88;0.70;;;;;;;18.22;100.00;100969.28;5038739;28;20051;-87
2023/09/16 04:50:57;;;;;;;1.60;1.40;;;;;;;18.70;100.00;101081.53;5069787;28;20531;-86
2023/09/16 04:53:23;;;;;;;0.55;0.50;;;;;;;18.23;100.00;101003.75;5066387;28;20043;-85
2023/09/16 04:55:48;;;;;;;1.45;1.08;;;;;;;18.87;100.00;101085.63;5068099;28;20443;-84
2023/09/16 04:58:14;;;;;;;2.05;1.52;;;;;;;18.28;100.00;100983.25;5060755;28;20067;-87
2023/09/16 05:00:39;;;;;;;0.90;0.85;;;;;;;18.74;100.00;101085.88;5067489;28;20044;-86
2023/09/16 05:03:05;;;;;;;0.93;0.93;;;;;;;18.55;100.00;101026.06;5067437;28;20044;-86
2023/09/16 05:05:32;;;;;;;1.73;1.08;;;;;;;18.56;100.00;100999.44;5067415;28;20470;-86
2023/09/16 05:07:58;;;;;;;0.20;0.20;;;;;;;18.47;100.00;101004.09;5060973;28;20059;-86
2023/09/16 05:10:23;;;;;;;1.02;0.80;;;;;;;18.78;100.00;101036.22;5068005;28;20134;-86
2023/09/16 05:12:49;;;;;;;1.38;1.27;;;;;;;18.73;100.00;101001.72;5067010;28;20166;-86
2023/09/16 05:15:14;;;;;;;1.48;0.95;;;;;;;18.68;100.00;101026.66;5059234;28;20049;-86
2023/09/16 05:17:40;;;;;;;1.60;1.23;;;;;;;18.67;100.00;101007.16;5066102;28;20040;-86
2023/09/16 05:20:07;;;;;;;1.48;1.20;;;;;;;19.21;100.00;101101.66;5044288;28;20029;-86
2023/09/16 05:22:33;;;;;;;2.53;1.27;;;;;;;18.53;100.00;100964.09;5059409;28;20028;-86
2023/09/16 05:24:59;;;;;;;1.05;0.63;;;;;;;19.01;100.00;101001.06;5063293;28;20170;-86
2023/09/16 05:27:24;;;;;;;1.38;1.02;;;;;;;19.48;100.00;101024.66;5058697;28;20643;-87
2023/09/16 05:29:51;;;;;;;1.05;0.95;;;;;;;19.84;100.00;101099.19;5063126;28;20048;-85
2023/09/16 05:32:18;;;;;;;1.77;1.67;;;;;;;20.14;100.00;101076.13;5059151;28;20037;-85
2023/09/16 05:34:44;;;;;;;1.73;1.63;;;;;;;20.31;100.00;101051.63;5060004;28;20079;-88
2023/09/16 05:37:09;;;;;;;0.55;0.55;;;;;;;19.60;100.00;100961.31;5054525;28;20505;-84
2023/09/16 05:39:36;;;;;;;1.05;0.95;;;;;;;20.15;100.00;101062.75;5049666;28;20049;-86
2023/09/16 05:42:02;;;;;;;1.20;1.10;;;;;;;20.53;100.00;100971.84;5043891;28;20114;-86
2023/09/16 05:44:28;;;;;;;0.32;0.32;;;;;;;21.28;100.00;101092.13;5059012;28;20547;-86
2023/09/16 05:46:53;;;;;;;0.47;0.47;;;;;;;20.97;100.00;100966.88;5066036;28;20020;-85
2023/09/16 05:49:19;;;;;;;1.60;1.50;;;;;;;22.02;100.00;101066.41;5061865;28;20045;-87
2023/09/16 05:51:44;;;;;;;1.23;1.00;;;;;;;21.75;100.00;100981.91;5046416;28;20044;-85
2023/09/16 05:54:12;;;;;;;0.93;0.85;;;;;;;21.75;100.00;101060.28;5062897;28;20135;-86
2023/09/16 05:56:38;;;;;;;0.55;0.50;;;;;;;22.33;100.00;101075.97;5071384;28;20056;-86
2023/09/16 05:59:05;;;;;;;1.83;1.17;;;;;;;21.59;100.00;101099.16;5069476;28;20025;-87
2023/09/16 06:01:31;;;;;;;1.92;1.42;;;;;;;21.03;100.00;101015.56;5066115;28;20060;-86
2023/09/16 06:03:56;;;;;;;0.55;0.55;;;;;;;21.89;100.00;101102.50;5067520;28;20083;-84
2023/09/16 06:06:22;;;;;;;0.38;0.38;;;;;;;20.77;100.00;100994.25;5030122;28;20385;-86
2023/09/16 06:08:47;;;;;;;3.05;1.67;;;;;;;20.42;100.00;101044.19;5063421;28;20040;-85
2023/09/16 06:11:13;;;;;;;0.60;0.55;;;;;;;20.16;100.00;101055.66;5065614;28;20044;-87
2023/09/16 06:13:38;;;;;;;1.45;1.35;;;;;;;20.59;100.00;101115.69;5065281;28;20412;-87
2023/09/16 06:16:05;;;;;;;1.27;1.17;;;;;;;20.40;100.00;101009.56;5048666;28;20036;-88
2023/09/16 06:18:31;;;;;;;1.20;1.10;;;;;;;20.62;100.00;101023.13;5059719;28;20040;-87
2023/09/16 06:20:56;;;;;;;2.17;1.98;;;;;;;20.86;100.00;101032.16;5036797;28;20037;-85
2023/09/16 06:23:25;;;;;;;1.98;1.13;;;;;;;21.03;100.00;101031.59;5062075;28;20426;-87
2023/09/16 06:25:50;;;;;;;0.68;0.68;;;;;;;20.63;100.00;101014.22;5039756;28;20052;-86
2023/09/16 06:28:16;;;;;;;1.73;1.00;;;;;;;20.89;100.00;101067.66;5049903;28;20041;-85
2023/09/16 06:30:41;;;;;;;0.50;0.50;;;;;;;19.04;100.00;100774.88;5044621;28;20446;-87
2023/09/16 06:33:07;;;;;;;0.60;0.60;;;;;;;20.85;100.00;101117.56;5065345;28;20048;-85
2023/09/16 06:35:32;;;;;;;1.73;1.63;;;;;;;21.03;100.00;101095.63;5057833;28;20063;-87
2023/09/16 06:37:58;;;;;;;1.65;1.45;;;;;;;20.73;100.00;101008.59;5067095;28;20032;-87
2023/09/16 06:40:23;;;;;;;1.15;0.68;;;;;;;21.13;100.00;101088.19;5066256;28;20090;-86
2023/09/16 06:42:48;;;;;;;3.67;0.98;;;;;;;21.08;100.00;101098.16;5065504;28;20067;-87
2023/09/16 06:45:15;;;;;;;1.77;1.67;;;;;;;21.21;100.00;101119.94;5062672;28;20052;-87
2023/09/16 06:47:41;;;;;;;1.50;1.40;;;;;;;20.27;100.00;100949.56;5065143;28;20064;-87
2023/09/16 06:50:08;;;;;;;1.10;0.88;;;;;;;20.48;100.00;101032.47;5059905;28;21381;-86
2023/09/16 06:52:34;;;;;;;2.30;2.13;;;;;;;20.38;100.00;101042.53;5047162;28;20039;-89
2023/09/16 06:54:59;;;;;;;1.02;0.93;;;;;;;21.13;100.00;101146.03;5065450;28;20513;-87
2023/09/16 06:57:24;;;;;;;2.88;1.58;;;;;;;20.91;100.00;101060.44;5046698;28;20057;-84
2023/09/16 06:59:51;;;;;;;2.50;2.33;;;;;;;20.98;100.00;101054.03;5025342;28;20033;-85
2023/09/16 07:02:17;;;;;;;1.83;1.42;;;;;;;21.22;100.00;101100.38;5067491;28;20044;-86
2023/09/16 07:04:45;;;;;;;1.55;1.45;;;;;;;21.19;100.00;101159.16;5065480;28;20112;-86
2023/09/16 07:07:11;;;;;;;0.93;0.77;;;;;;;;;;5073106;28;20036;-87
2023/09/16 07:09:36;;;;;;;1.38;1.10;;;;;;;20.83;100.00;101052.69;5036090;28;20056;-85
2023/09/16 07:12:02;;;;;;;1.83;1.63;;;;;;;20.76;100.00;100989.81;5071807;28;20482;-88
2023/09/16 07:14:27;;;;;;;8.23;2.08;;;;;;;21.25;100.00;101076.22;5070636;28;20067;-87
2023/09/16 07:16:53;;;;;;;4.25;2.45;;;;;;;21.61;100.00;101138.25;5068769;28;20661;-87
2023/09/16 07:19:18;;;;;;;2.95;2.50;;;;;;;21.10;100.00;101077.63;5073911;28;20040;-87
2023/09/16 07:21:44;;;;;;;3.13;2.35;;;;;;;21.30;100.00;101082.28;5072785;28;20495;-86
2023/09/16 07:24:09;;;;;;;1.65;1.48;;;;;;;21.83;100.00;101166.88;5069596;28;20139;-85
2023/09/16 07:26:35;;;;;;;3.38;2.40;;;;;;;21.76;100.00;101143.97;5062487;28;20063;-84
2023/09/16 07:29:00;;;;;;;1.77;1.67;;;;;;;21.16;100.00;101096.09;5043591;28;20036;-86
2023/09/16 07:31:26;;;;;;;1.48;1.38;;;;;;;21.33;100.00;101118.69;5068435;28;20020;-86
2023/09/16 07:33:51;;;;;;;1.25;1.15;;;;;;;22.05;100.00;101199.06;5062158;28;20070;-87
2023/09/16 07:36:17;;;;;;;1.10;0.95;;;;;;;22.07;100.00;101138.41;5066917;28;20519;-86
2023/09/16 07:38:42;;;;;;;2.45;2.25;;;;;;;21.99;100.00;101152.06;5044203;28;20033;-87
2023/09/16 07:41:08;;;;;;;6.57;2.58;;;;;;;22.17;100.00;101184.38;5069285;28;20480;-85
2023/09/16 07:43:34;;;;;;;1.38;1.27;;;;;;;21.61;100.00;101070.56;5065865;28;20027;-86
2023/09/16 07:46:00;;;;;;;1.88;1.45;;;;;;;21.73;100.00;101160.97;5065935;28;20037;-86
2023/09/16 07:48:25;;;;;;;1.58;1.48;;;;;;;21.82;100.00;101176.69;5053838;28;20053;-86
2023/09/16 07:50:51;;;;;;;1.95;1.30;;;;;;;21.79;100.00;101163.41;5070649;28;20043;-87
2023/09/16 07:53:16;;;;;;;2.60;1.85;;;;;;;21.01;100.00;101064.59;5036439;28;20033;-86
2023/09/16 07:55:42;;;;;;;0.73;0.70;;;;;;;21.47;100.00;101117.34;5065652;28;20049;-86
2023/09/16 07:58:07;;;;;;;3.47;2.67;;;;;;;21.82;100.00;101136.63;5065095;28;20129;-87
2023/09/16 08:00:34;;;;;;;0.65;0.47;;;;;;;21.85;100.00;101149.88;5063750;28;20044;-84
2023/09/16 08:03:00;;;;;;;1.67;1.50;;;;;;;21.63;100.00;101115.03;5071254;28;20044;-85
2023/09/16 08:05:27;;;;;;;1.73;1.60;;;;;;;21.85;100.00;101191.75;5066878;28;20507;-86
2023/09/16 08:07:55;;;;;;;1.83;1.70;;;;;;;21.88;100.00;101130.19;5070105;28;20028;-87
2023/09/16 08:10:20;;;;;;;3.63;2.50;;;;;;;22.42;100.00;101195.97;5073956;28;20082;-85
2023/09/16 08:12:46;;;;;;;5.53;3.05;;;;;;;21.83;100.00;101174.91;5071129;28;20041;-86
2023/09/16 08:15:11;;;;;;;2.20;2.00;;;;;;;21.71;100.00;101170.84;5044609;28;20041;-86
2023/09/16 08:17:37;;;;;;;1.35;1.05;;;;;;;21.17;100.00;101091.66;5066830;28;20114;-85
2023/09/16 08:20:07;;;;;;;1.13;1.00;;;;;;;22.10;100.00;101219.38;5069191;28;20079;-86
2023/09/16 08:22:33;;;;;;;0.68;0.52;;;;;;;21.61;100.00;101114.19;5041950;28;20025;-85
2023/09/16 08:24:58;;;;;;;2.78;2.58;;;;;;;22.23;100.00;101209.13;5065465;28;20128;-85
2023/09/16 08:27:25;;;;;;;2.60;1.75;;;;;;;22.15;100.00;101195.16;5058215;28;20819;-85
2023/09/16 08:29:52;;;;;;;0.95;0.93;;;;;;;22.24;100.00;101196.63;5067413;28;20067;-85
2023/09/16 08:32:18;;;;;;;1.95;1.85;;;;;;;22.41;100.00;101196.03;5063733;28;20060;-85
2023/09/16 08:34:44;;;;;;;1.67;1.58;;;;;;;21.98;100.00;101098.66;5065356;28;20544;-87
2023/09/16 08:37:11;;;;;;;1.52;1.23;;;;;;;21.93;100.00;101088.97;5063225;28;20045;-86
2023/09/16 08:39:37;;;;;;;2.25;1.85;;;;;;;21.97;100.00;101091.56;5064539;28;20160;-85
2023/09/16 08:42:15;;;;;;;0.65;0.55;;;;;;;22.32;100.00;101176.72;5050594;28;20552;-87
2023/09/16 08:44:48;;;;;;;2.10;1.90;;;;;;;22.00;100.00;101105.66;5032056;28;20064;-87
2023/09/16 08:47:20;;;;;;;1.48;1.38;;;;;;;22.11;100.00;101098.13;5066525;28;20822;-86
2023/09/16 08:49:50;;;;;;;1.25;1.15;;;;;;;22.24;100.00;101106.63;5060708;28;20033;-86
2023/09/16 08:52:17;;;;;;;0.70;0.60;;;;;;;22.85;100.00;101191.69;5067835;28;20067;-87
2023/09/16 08:54:47;;;;;;;2.63;1.77;;;;;;;22.22;100.00;101100.47;5067165;28;20071;-85
2023/09/16 08:57:13;;;;;;;1.73;1.45;;;;;;;22.34;100.00;101125.88;5050149;28;20148;-86
2023/09/16 08:59:40;;;;;;;1.23;1.13;;;;;;;22.60;100.00;101180.19;5066083;28;20606;-87
2023/09/16 09:02:08;;;;;;;7.20;2.92;;;;;;;22.26;100.00;101098.53;5067059;28;20551;-87
2023/09/16 09:04:34;;;;;;;0.82;0.82;;;;;;;22.67;100.00;101192.41;5047938;28;20374;-87
2023/09/16 09:07:02;;;;;;;2.45;2.25;;;;;;;22.93;100.00;101205.63;5064321;28;20443;-87
2023/09/16 09:09:29;;;;;;;3.42;2.25;;;;;;;22.70;100.00;101165.50;5061587;28;20048;-86
2023/09/16 09:11:57;;;;;;;1.02;1.00;;;;;;;23.04;100.00;101190.97;5044079;28;20078;-85
2023/09/16 09:14:23;;;;;;;5.90;2.75;;;;;;;22.45;100.00;101107.63;5046666;28;20078;-85
2023/09/16 09:16:51;;;;;;;2.55;2.35;;;;;;;22.07;100.00;101182.03;5037816;28;20064;-86
2023/09/16 09:19:20;;;;;;;0.93;0.80;;;;;;;22.06;100.00;101104.59;5058267;28;20075;-86
2023/09/16 09:21:47;;;;;;;2.95;1.40;;;;;;;22.09;100.00;101203.38;5060186;28;20032;-86
2023/09/16 09:24:12;;;;;;;1.08;0.73;;;;;;;21.75;100.00;101127.06;5051624;28;20055;-89
2023/09/16 09:26:38;;;;;;;1.30;1.15;;;;;;;21.86;100.00;101116.00;5029754;28;20469;-87
2023/09/16 09:29:09;;;;;;;1.58;1.42;;;;;;;22.22;100.00;101199.38;5043019;28;20024;-88
2023/09/16 09:31:35;;;;;;;2.42;2.20;;;;;;;22.07;100.00;101181.16;5046550;28;20430;-85
2023/09/16 09:34:00;;;;;;;3.97;1.95;;;;;;;22.07;100.00;101114.34;5062294;28;20045;-86
2023/09/16 09:36:27;;;;;;;1.95;1.70;;;;;;;22.23;100.00;101117.38;5043530;28;20044;-86
2023/09/16 09:38:56;;;;;;;0.82;0.77;;;;;;;22.90;100.00;101213.78;5061323;28;20040;-87
2023/09/16 09:41:22;;;;;;;2.50;1.67;;;;;;;22.79;100.00;101216.00;5062945;28;20041;-87
2023/09/16 09:43:51;;;;;;;1.35;1.25;;;;;;;22.29;100.00;101118.00;5060020;28;20019;-85
2023/09/16 09:46:16;;;;;;;2.20;1.13;;;;;;;22.14;100.00;101119.41;5067607;28;20543;-85
2023/09/16 09:48:42;;;;;;;1.30;1.15;;;;;;;22.41;100.00;101146.09;5058482;28;20093;-86
2023/09/16 09:51:11;;;;;;;1.23;1.13;;;;;;;22.28;100.00;101121.59;5038328;28;20059;-85
2023/09/16 09:53:37;;;;;;;1.52;1.25;;;;;;;22.28;100.00;101207.16;5059451;28;20770;-87
2023/09/16 09:56:02;;;;;;;1.50;1.40;;;;;;;22.50;100.00;101185.88;5077886;28;20079;-85
2023/09/16 09:58:30;;;;;;;5.25;3.60;;;;;;;22.81;100.00;101210.59;5077794;28;20476;-85
2023/09/16 10:00:55;;;;;;;2.67;2.45;;;;;;;22.64;100.00;101198.72;5049556;28;20452;-85
2023/09/16 10:03:22;;;;;;;1.95;1.77;;;;;;;22.86;100.00;101211.28;5039134;28;20131;-86
2023/09/16 10:05:48;;;;;;;1.70;1.35;;;;;;;22.39;100.00;101106.97;5064431;28;20115;-87
2023/09/16 10:08:17;;;;;;;5.03;2.58;;;;;;;22.93;100.00;101196.75;5066177;28;20040;-88
2023/09/16 10:10:46;;;;;;;1.20;1.10;;;;;;;22.16;100.00;101047.19;5061624;28;20029;-85
2023/09/16 10:13:11;;;;;;;5.00;3.47;;;;;;;22.99;100.00;101206.34;5066908;28;20105;-87
2023/09/16 10:15:39;;;;;;;1.05;0.98;;;;;;;22.88;100.00;101193.38;5052718;28;20048;-87
2023/09/16 10:18:07;;;;;;;2.05;1.40;;;;;;;22.97;100.00;101201.91;5032446;28;20051;-89
2023/09/16 10:20:36;;;;;;;2.25;2.05;;;;;;;22.58;100.00;101113.34;5057048;28;20127;-86
2023/09/16 10:23:02;;;;;;;1.65;1.55;;;;;;;23.10;100.00;101215.72;5030957;28;20032;-87
2023/09/16 10:25:28;;;;;;;1.52;1.42;;;;;;;22.48;100.00;101211.81;5062670;28;20028;-86
2023/09/16 10:27:58;;;;;;;3.17;1.75;;;;;;;22.16;100.00;101127.38;5049275;28;20040;-86
2023/09/16 10:30:25;;;;;;;0.98;0.90;;;;;;;22.70;100.00;101166.38;5053068;28;20564;-87
2023/09/16 10:32:52;;;;;;;0.95;0.88;;;;;;;23.07;100.00;101207.81;5063027;28;20127;-88
2023/09/16 10:35:19;;;;;;;2.88;2.67;;;;;;;22.66;100.00;101150.50;5053172;28;20088;-87
2023/09/16 10:37:46;;;;;;;1.48;1.38;;;;;;;22.17;100.00;101195.06;5041454;28;20045;-87
2023/09/16 10:40:16;;;;;;;2.38;1.42;;;;;;;22.40;100.00;101199.63;5061932;28;20740;-87
2023/09/16 10:42:42;;;;;;;1.17;1.13;;;;;;;21.91;100.00;101076.59;5057225;28;20091;-86
2023/09/16 10:45:11;;;;;;;1.73;1.42;;;;;;;22.63;100.00;101151.50;5054711;28;20036;-87
2023/09/16 10:47:37;;;;;;;1.35;0.82;;;;;;;22.81;100.00;101207.94;5065208;28;20058;-85
2023/09/16 10:50:02;;;;;;;2.15;1.50;;;;;;;23.01;100.00;101200.00;5061972;28;20457;-88
2023/09/16 10:52:57;;;;;;;1.98;1.67;;;;;;;22.80;100.00;101185.63;5064631;28;20033;-87
2023/09/16 10:55:49;;;;;;;1.80;1.70;;;;;;;22.55;100.00;101156.28;5028455;28;20074;-86
2023/09/16 10:58:48;;;;;;;2.03;1.92;;;;;;;22.61;100.00;101197.97;5042115;28;20164;-86
2023/09/16 11:01:26;;;;;;;3.03;2.25;;;;;;;22.27;100.00;101122.53;5043580;28;20105;-87
2023/09/16 11:03:55;;;;;;;2.63;2.42;;;;;;;22.48;100.00;101195.75;5038197;28;20037;-85
2023/09/16 11:06:21;;;;;;;1.80;1.55;;;;;;;22.52;100.00;101181.34;5056087;28;20037;-88
2023/09/16 11:08:47;;;;;;;4.72;4.35;;;;;;;22.61;100.00;101188.13;5047721;28;20090;-86
2023/09/16 11:11:13;;;;;;;2.80;2.60;;;;;;;22.34;100.00;101164.16;5069528;28;20044;-85
2023/09/16 11:13:39;;;;;;;2.78;2.22;;;;;;;22.36;100.00;101083.00;5063916;28;20043;-87
2023/09/16 11:16:05;;;;;;;3.85;3.55;;;;;;;22.63;100.00;101100.66;5041636;28;20036;-86